sensor_id;sensor_type;location;lat;lon;timestamp;P1;durP1;ratioP1;P2;durP2;ratioP2
9388;SDS011;4734;52.778;6.798;2023-12-20T00:01:40;1.50;;;0.90;;
9388;SDS011;4734;52.778;6.798;2023-12-20T00:04:25;3.57;;;1.60;;
9388;SDS011;4734;52.778;6.798;2023-12-20T00:07:12;1.77;;;1.10;;
9388;SDS011;4734;52.778;6.798;2023-12-20T00:09:58;4.73;;;1.53;;
9388;SDS011;4734;52.778;6.798;2023-12-20T00:12:43;3.93;;;1.40;;
9388;SDS011;4734;52.778;6.798;2023-12-20T00:15:29;3.63;;;1.10;;
9388;SDS011;4734;52.778;6.798;2023-12-20T00:18:14;5.80;;;1.60;;
9388;SDS011;4734;52.778;6.798;2023-12-20T00:21:00;2.15;;;1.30;;
9388;SDS011;4734;52.778;6.798;2023-12-20T00:23:46;2.97;;;1.30;;
9388;SDS011;4734;52.778;6.798;2023-12-20T00:26:32;2.55;;;1.40;;
9388;SDS011;4734;52.778;6.798;2023-12-20T00:29:17;5.77;;;1.53;;
9388;SDS011;4734;52.778;6.798;2023-12-20T00:32:03;4.30;;;1.57;;
9388;SDS011;4734;52.778;6.798;2023-12-20T00:34:49;7.23;;;1.73;;
9388;SDS011;4734;52.778;6.798;2023-12-20T00:37:35;4.63;;;1.58;;
9388;SDS011;4734;52.778;6.798;2023-12-20T00:40:22;3.50;;;1.67;;
9388;SDS011;4734;52.778;6.798;2023-12-20T00:43:07;4.77;;;1.50;;
9388;SDS011;4734;52.778;6.798;2023-12-20T00:45:53;2.00;;;1.43;;
9388;SDS011;4734;52.778;6.798;2023-12-20T00:48:38;3.87;;;1.53;;
9388;SDS011;4734;52.778;6.798;2023-12-20T00:51:26;4.57;;;1.77;;
9388;SDS011;4734;52.778;6.798;2023-12-20T00:54:11;6.37;;;1.60;;
9388;SDS011;4734;52.778;6.798;2023-12-20T00:56:58;6.83;;;1.60;;
9388;SDS011;4734;52.778;6.798;2023-12-20T00:59:44;4.23;;;1.40;;
9388;SDS011;4734;52.778;6.798;2023-12-20T01:02:29;4.83;;;1.57;;
9388;SDS011;4734;52.778;6.798;2023-12-20T01:05:15;7.73;;;1.70;;
9388;SDS011;4734;52.778;6.798;2023-12-20T01:08:01;6.20;;;1.40;;
9388;SDS011;4734;52.778;6.798;2023-12-20T01:10:47;4.20;;;1.50;;
9388;SDS011;4734;52.778;6.798;2023-12-20T01:13:34;3.97;;;1.40;;
9388;SDS011;4734;52.778;6.798;2023-12-20T01:16:20;2.07;;;1.67;;
9388;SDS011;4734;52.778;6.798;2023-12-20T01:19:08;6.22;;;1.85;;
9388;SDS011;4734;52.778;6.798;2023-12-20T01:21:54;3.93;;;1.70;;
9388;SDS011;4734;52.778;6.798;2023-12-20T01:24:40;6.47;;;1.83;;
9388;SDS011;4734;52.778;6.798;2023-12-20T01:27:26;6.50;;;1.70;;
9388;SDS011;4734;52.778;6.798;2023-12-20T01:30:13;3.63;;;1.50;;
9388;SDS011;4734;52.778;6.798;2023-12-20T01:32:59;6.53;;;2.23;;
9388;SDS011;4734;52.778;6.798;2023-12-20T01:35:45;4.23;;;1.70;;
9388;SDS011;4734;52.778;6.798;2023-12-20T01:38:30;7.97;;;1.90;;
9388;SDS011;4734;52.778;6.798;2023-12-20T01:41:16;3.10;;;1.70;;
9388;SDS011;4734;52.778;6.798;2023-12-20T01:44:01;5.05;;;1.52;;
9388;SDS011;4734;52.778;6.798;2023-12-20T01:46:49;2.30;;;1.33;;
9388;SDS011;4734;52.778;6.798;2023-12-20T01:49:34;7.43;;;2.07;;
9388;SDS011;4734;52.778;6.798;2023-12-20T01:52:20;3.10;;;1.50;;
9388;SDS011;4734;52.778;6.798;2023-12-20T01:55:06;4.13;;;1.70;;
9388;SDS011;4734;52.778;6.798;2023-12-20T01:57:57;2.67;;;1.53;;
9388;SDS011;4734;52.778;6.798;2023-12-20T02:00:43;5.67;;;1.60;;
9388;SDS011;4734;52.778;6.798;2023-12-20T02:03:30;2.40;;;1.50;;
9388;SDS011;4734;52.778;6.798;2023-12-20T02:06:16;8.37;;;1.87;;
9388;SDS011;4734;52.778;6.798;2023-12-20T02:09:02;4.13;;;1.70;;
9388;SDS011;4734;52.778;6.798;2023-12-20T02:11:49;3.70;;;2.10;;
9388;SDS011;4734;52.778;6.798;2023-12-20T02:14:34;3.60;;;1.50;;
9388;SDS011;4734;52.778;6.798;2023-12-20T02:17:20;4.33;;;2.00;;
9388;SDS011;4734;52.778;6.798;2023-12-20T02:20:07;7.40;;;1.60;;
9388;SDS011;4734;52.778;6.798;2023-12-20T02:22:54;3.83;;;1.87;;
9388;SDS011;4734;52.778;6.798;2023-12-20T02:25:39;3.53;;;1.40;;
9388;SDS011;4734;52.778;6.798;2023-12-20T02:28:25;4.20;;;1.73;;
9388;SDS011;4734;52.778;6.798;2023-12-20T02:31:12;9.87;;;2.60;;
9388;SDS011;4734;52.778;6.798;2023-12-20T02:33:58;8.00;;;2.03;;
9388;SDS011;4734;52.778;6.798;2023-12-20T02:36:43;6.07;;;1.80;;
9388;SDS011;4734;52.778;6.798;2023-12-20T02:39:30;4.27;;;1.90;;
9388;SDS011;4734;52.778;6.798;2023-12-20T02:42:17;6.37;;;1.90;;
9388;SDS011;4734;52.778;6.798;2023-12-20T02:45:03;7.33;;;2.20;;
9388;SDS011;4734;52.778;6.798;2023-12-20T02:47:48;9.10;;;2.00;;
9388;SDS011;4734;52.778;6.798;2023-12-20T02:50:34;11.43;;;2.50;;
9388;SDS011;4734;52.778;6.798;2023-12-20T02:53:19;5.63;;;1.83;;
9388;SDS011;4734;52.778;6.798;2023-12-20T02:56:07;5.87;;;1.80;;
9388;SDS011;4734;52.778;6.798;2023-12-20T02:58:52;4.37;;;1.63;;
9388;SDS011;4734;52.778;6.798;2023-12-20T03:01:41;6.97;;;2.10;;
9388;SDS011;4734;52.778;6.798;2023-12-20T03:04:27;4.67;;;1.87;;
9388;SDS011;4734;52.778;6.798;2023-12-20T03:07:13;6.43;;;1.70;;
9388;SDS011;4734;52.778;6.798;2023-12-20T03:09:58;4.87;;;1.73;;
9388;SDS011;4734;52.778;6.798;2023-12-20T03:12:45;4.87;;;1.77;;
9388;SDS011;4734;52.778;6.798;2023-12-20T03:15:31;5.40;;;1.80;;
9388;SDS011;4734;52.778;6.798;2023-12-20T03:18:16;3.03;;;0.93;;
9388;SDS011;4734;52.778;6.798;2023-12-20T03:21:02;5.90;;;2.10;;
9388;SDS011;4734;52.778;6.798;2023-12-20T03:23:48;6.00;;;1.73;;
9388;SDS011;4734;52.778;6.798;2023-12-20T03:26:34;7.87;;;1.90;;
9388;SDS011;4734;52.778;6.798;2023-12-20T03:29:21;7.97;;;1.97;;
9388;SDS011;4734;52.778;6.798;2023-12-20T03:32:06;5.07;;;2.17;;
9388;SDS011;4734;52.778;6.798;2023-12-20T03:34:52;10.37;;;2.20;;
9388;SDS011;4734;52.778;6.798;2023-12-20T03:37:37;9.27;;;2.40;;
9388;SDS011;4734;52.778;6.798;2023-12-20T03:40:23;11.33;;;2.37;;
9388;SDS011;4734;52.778;6.798;2023-12-20T03:43:08;9.20;;;2.47;;
9388;SDS011;4734;52.778;6.798;2023-12-20T03:45:55;7.47;;;2.47;;
9388;SDS011;4734;52.778;6.798;2023-12-20T03:48:42;4.77;;;2.20;;
9388;SDS011;4734;52.778;6.798;2023-12-20T03:51:28;5.37;;;2.10;;
9388;SDS011;4734;52.778;6.798;2023-12-20T03:54:13;11.47;;;2.30;;
9388;SDS011;4734;52.778;6.798;2023-12-20T03:56:59;9.07;;;2.00;;
9388;SDS011;4734;52.778;6.798;2023-12-20T03:59:44;7.63;;;1.93;;
9388;SDS011;4734;52.778;6.798;2023-12-20T04:02:32;9.07;;;2.00;;
9388;SDS011;4734;52.778;6.798;2023-12-20T04:05:18;3.80;;;2.00;;
9388;SDS011;4734;52.778;6.798;2023-12-20T04:08:04;8.47;;;2.03;;
9388;SDS011;4734;52.778;6.798;2023-12-20T04:10:49;9.30;;;2.10;;
9388;SDS011;4734;52.778;6.798;2023-12-20T04:13:35;6.10;;;2.30;;
9388;SDS011;4734;52.778;6.798;2023-12-20T04:16:20;8.70;;;2.27;;
9388;SDS011;4734;52.778;6.798;2023-12-20T04:19:07;7.93;;;2.30;;
9388;SDS011;4734;52.778;6.798;2023-12-20T04:21:53;7.57;;;2.40;;
9388;SDS011;4734;52.778;6.798;2023-12-20T04:24:38;10.40;;;2.13;;
9388;SDS011;4734;52.778;6.798;2023-12-20T04:27:26;12.20;;;3.00;;
9388;SDS011;4734;52.778;6.798;2023-12-20T04:30:11;10.80;;;3.03;;
9388;SDS011;4734;52.778;6.798;2023-12-20T04:32:57;9.67;;;2.27;;
9388;SDS011;4734;52.778;6.798;2023-12-20T04:35:44;10.13;;;2.60;;
9388;SDS011;4734;52.778;6.798;2023-12-20T04:38:30;5.83;;;2.20;;
9388;SDS011;4734;52.778;6.798;2023-12-20T04:41:15;9.40;;;2.53;;
9388;SDS011;4734;52.778;6.798;2023-12-20T04:44:02;7.00;;;2.63;;
9388;SDS011;4734;52.778;6.798;2023-12-20T04:46:48;8.83;;;2.40;;
9388;SDS011;4734;52.778;6.798;2023-12-20T04:49:33;6.37;;;1.90;;
9388;SDS011;4734;52.778;6.798;2023-12-20T04:52:20;10.03;;;2.67;;
9388;SDS011;4734;52.778;6.798;2023-12-20T04:55:06;9.33;;;2.63;;
9388;SDS011;4734;52.778;6.798;2023-12-20T04:57:52;15.37;;;2.93;;
9388;SDS011;4734;52.778;6.798;2023-12-20T05:00:38;7.50;;;2.37;;
9388;SDS011;4734;52.778;6.798;2023-12-20T05:03:23;11.60;;;2.70;;
9388;SDS011;4734;52.778;6.798;2023-12-20T05:06:09;11.20;;;2.90;;
9388;SDS011;4734;52.778;6.798;2023-12-20T05:08:56;8.53;;;2.83;;
9388;SDS011;4734;52.778;6.798;2023-12-20T05:11:41;8.63;;;2.80;;
9388;SDS011;4734;52.778;6.798;2023-12-20T05:14:27;8.10;;;2.63;;
9388;SDS011;4734;52.778;6.798;2023-12-20T05:17:13;13.50;;;3.30;;
9388;SDS011;4734;52.778;6.798;2023-12-20T05:19:58;11.20;;;2.70;;
9388;SDS011;4734;52.778;6.798;2023-12-20T05:22:44;9.03;;;2.97;;
9388;SDS011;4734;52.778;6.798;2023-12-20T05:25:31;10.27;;;2.87;;
9388;SDS011;4734;52.778;6.798;2023-12-20T05:28:16;10.97;;;2.50;;
9388;SDS011;4734;52.778;6.798;2023-12-20T05:31:02;10.13;;;2.67;;
9388;SDS011;4734;52.778;6.798;2023-12-20T05:33:48;4.60;;;2.07;;
9388;SDS011;4734;52.778;6.798;2023-12-20T05:36:34;9.53;;;2.63;;
9388;SDS011;4734;52.778;6.798;2023-12-20T05:39:20;8.97;;;2.50;;
9388;SDS011;4734;52.778;6.798;2023-12-20T05:42:07;6.90;;;1.63;;
9388;SDS011;4734;52.778;6.798;2023-12-20T05:44:53;11.13;;;2.30;;
9388;SDS011;4734;52.778;6.798;2023-12-20T05:47:38;7.87;;;2.87;;
9388;SDS011;4734;52.778;6.798;2023-12-20T05:50:24;7.80;;;2.13;;
9388;SDS011;4734;52.778;6.798;2023-12-20T05:53:10;7.73;;;2.57;;
9388;SDS011;4734;52.778;6.798;2023-12-20T05:55:55;10.37;;;2.03;;
9388;SDS011;4734;52.778;6.798;2023-12-20T05:58:42;10.67;;;2.80;;
9388;SDS011;4734;52.778;6.798;2023-12-20T06:01:28;12.03;;;2.23;;
9388;SDS011;4734;52.778;6.798;2023-12-20T06:04:14;4.93;;;1.83;;
9388;SDS011;4734;52.778;6.798;2023-12-20T06:06:59;6.50;;;2.13;;
9388;SDS011;4734;52.778;6.798;2023-12-20T06:09:45;9.50;;;2.53;;
9388;SDS011;4734;52.778;6.798;2023-12-20T06:12:30;12.77;;;3.37;;
9388;SDS011;4734;52.778;6.798;2023-12-20T06:15:18;17.27;;;3.03;;
9388;SDS011;4734;52.778;6.798;2023-12-20T06:18:04;7.73;;;2.70;;
9388;SDS011;4734;52.778;6.798;2023-12-20T06:20:50;15.07;;;3.73;;
9388;SDS011;4734;52.778;6.798;2023-12-20T06:23:35;6.83;;;2.53;;
9388;SDS011;4734;52.778;6.798;2023-12-20T06:26:20;7.47;;;2.60;;
9388;SDS011;4734;52.778;6.798;2023-12-20T06:29:06;11.57;;;2.63;;
9388;SDS011;4734;52.778;6.798;2023-12-20T06:31:53;4.78;;;2.17;;
9388;SDS011;4734;52.778;6.798;2023-12-20T06:34:39;9.33;;;2.87;;
9388;SDS011;4734;52.778;6.798;2023-12-20T06:37:24;7.45;;;2.28;;
9388;SDS011;4734;52.778;6.798;2023-12-20T06:40:10;6.90;;;2.40;;
9388;SDS011;4734;52.778;6.798;2023-12-20T06:42:56;12.05;;;2.97;;
9388;SDS011;4734;52.778;6.798;2023-12-20T06:45:43;13.07;;;3.00;;
9388;SDS011;4734;52.778;6.798;2023-12-20T06:48:30;11.13;;;2.55;;
9388;SDS011;4734;52.778;6.798;2023-12-20T06:51:16;8.27;;;2.23;;
9388;SDS011;4734;52.778;6.798;2023-12-20T06:54:03;11.90;;;2.50;;
9388;SDS011;4734;52.778;6.798;2023-12-20T06:56:49;6.85;;;2.33;;
9388;SDS011;4734;52.778;6.798;2023-12-20T06:59:37;10.38;;;2.90;;
9388;SDS011;4734;52.778;6.798;2023-12-20T07:02:23;12.45;;;2.47;;
9388;SDS011;4734;52.778;6.798;2023-12-20T07:05:10;11.43;;;2.83;;
9388;SDS011;4734;52.778;6.798;2023-12-20T07:07:55;11.88;;;3.00;;
9388;SDS011;4734;52.778;6.798;2023-12-20T07:10:41;8.50;;;2.58;;
9388;SDS011;4734;52.778;6.798;2023-12-20T07:13:27;7.17;;;1.80;;
9388;SDS011;4734;52.778;6.798;2023-12-20T07:16:12;5.20;;;1.80;;
9388;SDS011;4734;52.778;6.798;2023-12-20T07:18:58;6.10;;;2.50;;
9388;SDS011;4734;52.778;6.798;2023-12-20T07:21:45;10.83;;;2.50;;
9388;SDS011;4734;52.778;6.798;2023-12-20T07:24:30;5.63;;;1.98;;
9388;SDS011;4734;52.778;6.798;2023-12-20T07:27:16;11.02;;;3.13;;
9388;SDS011;4734;52.778;6.798;2023-12-20T07:30:02;9.90;;;2.47;;
9388;SDS011;4734;52.778;6.798;2023-12-20T07:32:48;8.63;;;2.37;;
9388;SDS011;4734;52.778;6.798;2023-12-20T07:35:33;13.27;;;2.50;;
9388;SDS011;4734;52.778;6.798;2023-12-20T07:38:20;8.77;;;2.77;;
9388;SDS011;4734;52.778;6.798;2023-12-20T07:41:06;5.32;;;2.10;;
9388;SDS011;4734;52.778;6.798;2023-12-20T07:43:53;10.50;;;3.00;;
9388;SDS011;4734;52.778;6.798;2023-12-20T07:46:40;11.93;;;2.80;;
9388;SDS011;4734;52.778;6.798;2023-12-20T07:49:25;9.37;;;2.33;;
9388;SDS011;4734;52.778;6.798;2023-12-20T07:52:11;8.45;;;2.25;;
9388;SDS011;4734;52.778;6.798;2023-12-20T09:05:05;3.65;;;1.92;;
9388;SDS011;4734;52.778;6.798;2023-12-20T09:08:01;12.57;;;2.97;;
9388;SDS011;4734;52.778;6.798;2023-12-20T09:10:47;12.20;;;3.10;;
9388;SDS011;4734;52.778;6.798;2023-12-20T09:13:32;7.55;;;3.20;;
9388;SDS011;4734;52.778;6.798;2023-12-20T09:16:18;12.23;;;2.97;;
9388;SDS011;4734;52.778;6.798;2023-12-20T09:19:04;13.63;;;3.03;;
9388;SDS011;4734;52.778;6.798;2023-12-20T09:21:50;8.33;;;2.70;;
9388;SDS011;4734;52.778;6.798;2023-12-20T09:24:37;13.17;;;2.83;;
9388;SDS011;4734;52.778;6.798;2023-12-20T09:27:22;12.30;;;3.20;;
9388;SDS011;4734;52.778;6.798;2023-12-20T09:30:10;13.05;;;3.38;;
9388;SDS011;4734;52.778;6.798;2023-12-20T09:32:57;11.43;;;2.80;;
9388;SDS011;4734;52.778;6.798;2023-12-20T09:35:42;7.83;;;2.83;;
9388;SDS011;4734;52.778;6.798;2023-12-20T09:38:28;7.60;;;3.20;;
9388;SDS011;4734;52.778;6.798;2023-12-20T09:41:15;9.23;;;2.40;;
9388;SDS011;4734;52.778;6.798;2023-12-20T09:53:23;9.98;;;2.20;;
9388;SDS011;4734;52.778;6.798;2023-12-20T10:22:38;4.75;;;1.20;;
9388;SDS011;4734;52.778;6.798;2023-12-20T10:25:42;2.33;;;1.07;;
9388;SDS011;4734;52.778;6.798;2023-12-20T10:28:52;2.40;;;1.10;;
9388;SDS011;4734;52.778;6.798;2023-12-20T10:32:43;2.45;;;0.90;;
9388;SDS011;4734;52.778;6.798;2023-12-20T10:54:49;4.32;;;1.42;;
9388;SDS011;4734;52.778;6.798;2023-12-20T11:02:13;3.92;;;1.00;;
9388;SDS011;4734;52.778;6.798;2023-12-20T11:39:34;1.13;;;0.98;;
9388;SDS011;4734;52.778;6.798;2023-12-20T11:42:25;2.80;;;1.13;;
9388;SDS011;4734;52.778;6.798;2023-12-20T12:37:25;5.40;;;1.75;;
9388;SDS011;4734;52.778;6.798;2023-12-20T12:43:25;2.70;;;0.90;;
9388;SDS011;4734;52.778;6.798;2023-12-20T12:46:10;7.05;;;1.73;;
9388;SDS011;4734;52.778;6.798;2023-12-20T12:49:04;5.70;;;1.70;;
9388;SDS011;4734;52.778;6.798;2023-12-20T12:56:22;6.15;;;1.65;;
9388;SDS011;4734;52.778;6.798;2023-12-20T13:04:59;1.20;;;1.10;;
9388;SDS011;4734;52.778;6.798;2023-12-20T13:07:13;5.20;;;1.33;;
9388;SDS011;4734;52.778;6.798;2023-12-20T13:17:43;2.50;;;1.50;;
9388;SDS011;4734;52.778;6.798;2023-12-20T13:20:30;2.08;;;0.85;;
9388;SDS011;4734;52.778;6.798;2023-12-20T13:23:15;2.85;;;1.38;;
9388;SDS011;4734;52.778;6.798;2023-12-20T13:26:06;2.03;;;1.07;;
9388;SDS011;4734;52.778;6.798;2023-12-20T13:28:53;3.75;;;1.48;;
9388;SDS011;4734;52.778;6.798;2023-12-20T13:31:39;4.13;;;1.35;;
9388;SDS011;4734;52.778;6.798;2023-12-20T13:37:58;5.13;;;1.50;;
9388;SDS011;4734;52.778;6.798;2023-12-20T13:40:44;2.38;;;1.35;;
9388;SDS011;4734;52.778;6.798;2023-12-20T13:43:30;2.33;;;1.02;;
9388;SDS011;4734;52.778;6.798;2023-12-20T13:46:16;3.58;;;1.70;;
9388;SDS011;4734;52.778;6.798;2023-12-20T13:52:26;3.53;;;1.23;;
9388;SDS011;4734;52.778;6.798;2023-12-20T13:58:57;5.53;;;1.58;;
9388;SDS011;4734;52.778;6.798;2023-12-20T14:02:02;3.72;;;1.45;;
9388;SDS011;4734;52.778;6.798;2023-12-20T14:04:48;4.75;;;1.45;;
9388;SDS011;4734;52.778;6.798;2023-12-20T14:07:34;4.95;;;1.45;;
9388;SDS011;4734;52.778;6.798;2023-12-20T14:10:20;1.77;;;1.15;;
9388;SDS011;4734;52.778;6.798;2023-12-20T14:13:05;3.40;;;1.30;;
9388;SDS011;4734;52.778;6.798;2023-12-20T14:16:01;3.08;;;1.20;;
9388;SDS011;4734;52.778;6.798;2023-12-20T14:19:04;2.15;;;1.40;;
9388;SDS011;4734;52.778;6.798;2023-12-20T14:21:50;2.10;;;1.45;;
9388;SDS011;4734;52.778;6.798;2023-12-20T14:24:36;2.30;;;0.90;;
9388;SDS011;4734;52.778;6.798;2023-12-20T14:27:27;2.97;;;1.23;;
9388;SDS011;4734;52.778;6.798;2023-12-20T14:31:00;2.20;;;1.27;;
9388;SDS011;4734;52.778;6.798;2023-12-20T14:33:45;3.13;;;1.40;;
9388;SDS011;4734;52.778;6.798;2023-12-20T14:36:32;1.43;;;1.00;;
9388;SDS011;4734;52.778;6.798;2023-12-20T14:39:18;2.43;;;1.20;;
9388;SDS011;4734;52.778;6.798;2023-12-20T14:42:03;5.53;;;0.93;;
9388;SDS011;4734;52.778;6.798;2023-12-20T14:44:50;2.73;;;1.37;;
9388;SDS011;4734;52.778;6.798;2023-12-20T14:47:39;3.70;;;1.20;;
9388;SDS011;4734;52.778;6.798;2023-12-20T14:50:25;2.50;;;1.40;;
9388;SDS011;4734;52.778;6.798;2023-12-20T14:53:11;1.07;;;0.87;;
9388;SDS011;4734;52.778;6.798;2023-12-20T14:55:56;2.07;;;1.27;;
9388;SDS011;4734;52.778;6.798;2023-12-20T14:58:42;2.03;;;1.07;;
9388;SDS011;4734;52.778;6.798;2023-12-20T15:01:27;2.20;;;1.07;;
9388;SDS011;4734;52.778;6.798;2023-12-20T15:04:15;4.13;;;1.10;;
9388;SDS011;4734;52.778;6.798;2023-12-20T15:07:01;1.93;;;0.87;;
9388;SDS011;4734;52.778;6.798;2023-12-20T15:09:49;2.90;;;1.00;;
9388;SDS011;4734;52.778;6.798;2023-12-20T15:12:34;2.20;;;0.90;;
9388;SDS011;4734;52.778;6.798;2023-12-20T15:15:20;3.43;;;1.17;;
9388;SDS011;4734;52.778;6.798;2023-12-20T15:18:05;5.60;;;1.70;;
9388;SDS011;4734;52.778;6.798;2023-12-20T15:20:55;2.37;;;1.27;;
9388;SDS011;4734;52.778;6.798;2023-12-20T15:23:40;3.97;;;1.67;;
9388;SDS011;4734;52.778;6.798;2023-12-20T15:26:37;4.57;;;1.43;;
9388;SDS011;4734;52.778;6.798;2023-12-20T15:29:23;2.30;;;1.47;;
9388;SDS011;4734;52.778;6.798;2023-12-20T15:32:08;4.87;;;1.63;;
9388;SDS011;4734;52.778;6.798;2023-12-20T15:34:54;5.17;;;1.77;;
9388;SDS011;4734;52.778;6.798;2023-12-20T15:37:41;6.27;;;1.67;;
9388;SDS011;4734;52.778;6.798;2023-12-20T15:40:26;4.47;;;1.93;;
9388;SDS011;4734;52.778;6.798;2023-12-20T15:43:12;4.80;;;2.00;;
9388;SDS011;4734;52.778;6.798;2023-12-20T15:45:58;6.37;;;2.27;;
9388;SDS011;4734;52.778;6.798;2023-12-20T15:48:43;5.60;;;2.57;;
9388;SDS011;4734;52.778;6.798;2023-12-20T15:51:29;6.77;;;1.80;;
9388;SDS011;4734;52.778;6.798;2023-12-20T15:54:16;11.23;;;2.37;;
9388;SDS011;4734;52.778;6.798;2023-12-20T15:57:01;5.70;;;2.07;;
9388;SDS011;4734;52.778;6.798;2023-12-20T15:59:47;6.47;;;2.43;;
9388;SDS011;4734;52.778;6.798;2023-12-20T16:02:34;5.47;;;2.37;;
9388;SDS011;4734;52.778;6.798;2023-12-20T16:05:19;4.10;;;2.20;;
9388;SDS011;4734;52.778;6.798;2023-12-20T16:08:06;6.50;;;2.40;;
9388;SDS011;4734;52.778;6.798;2023-12-20T16:10:53;11.37;;;2.80;;
9388;SDS011;4734;52.778;6.798;2023-12-20T16:13:38;9.47;;;2.20;;
9388;SDS011;4734;52.778;6.798;2023-12-20T16:16:24;8.43;;;3.07;;
9388;SDS011;4734;52.778;6.798;2023-12-20T16:19:09;9.43;;;2.37;;
9388;SDS011;4734;52.778;6.798;2023-12-20T16:21:55;13.33;;;3.20;;
9388;SDS011;4734;52.778;6.798;2023-12-20T16:24:40;6.83;;;2.30;;
9388;SDS011;4734;52.778;6.798;2023-12-20T16:27:27;7.73;;;2.17;;
9388;SDS011;4734;52.778;6.798;2023-12-20T16:30:13;6.20;;;2.17;;
9388;SDS011;4734;52.778;6.798;2023-12-20T16:32:59;6.53;;;2.60;;
9388;SDS011;4734;52.778;6.798;2023-12-20T16:35:45;10.50;;;2.37;;
9388;SDS011;4734;52.778;6.798;2023-12-20T16:38:30;12.27;;;2.53;;
9388;SDS011;4734;52.778;6.798;2023-12-20T16:41:16;6.07;;;2.20;;
9388;SDS011;4734;52.778;6.798;2023-12-20T16:44:03;7.17;;;2.53;;
9388;SDS011;4734;52.778;6.798;2023-12-20T16:46:48;9.63;;;2.63;;
9388;SDS011;4734;52.778;6.798;2023-12-20T16:49:34;9.37;;;2.33;;
9388;SDS011;4734;52.778;6.798;2023-12-20T16:52:19;9.47;;;2.60;;
9388;SDS011;4734;52.778;6.798;2023-12-20T16:55:08;9.63;;;2.20;;
9388;SDS011;4734;52.778;6.798;2023-12-20T16:57:54;8.00;;;2.20;;
9388;SDS011;4734;52.778;6.798;2023-12-20T17:00:44;8.57;;;2.53;;
9388;SDS011;4734;52.778;6.798;2023-12-20T17:03:30;12.67;;;2.10;;
9388;SDS011;4734;52.778;6.798;2023-12-20T17:06:15;11.63;;;2.63;;
9388;SDS011;4734;52.778;6.798;2023-12-20T17:09:01;8.40;;;2.43;;
9388;SDS011;4734;52.778;6.798;2023-12-20T17:11:46;10.77;;;2.70;;
9388;SDS011;4734;52.778;6.798;2023-12-20T17:14:32;6.83;;;2.60;;
9388;SDS011;4734;52.778;6.798;2023-12-20T17:17:19;5.97;;;2.57;;
9388;SDS011;4734;52.778;6.798;2023-12-20T17:20:05;5.57;;;2.53;;
9388;SDS011;4734;52.778;6.798;2023-12-20T17:22:51;9.17;;;3.23;;
9388;SDS011;4734;52.778;6.798;2023-12-20T17:25:37;5.40;;;2.60;;
9388;SDS011;4734;52.778;6.798;2023-12-20T17:28:24;6.80;;;2.40;;
9388;SDS011;4734;52.778;6.798;2023-12-20T17:31:10;8.17;;;2.33;;
9388;SDS011;4734;52.778;6.798;2023-12-20T17:33:57;8.10;;;2.53;;
9388;SDS011;4734;52.778;6.798;2023-12-20T17:36:42;9.60;;;2.30;;
9388;SDS011;4734;52.778;6.798;2023-12-20T17:39:29;12.17;;;2.27;;
9388;SDS011;4734;52.778;6.798;2023-12-20T17:42:15;8.97;;;2.47;;
9388;SDS011;4734;52.778;6.798;2023-12-20T17:45:00;4.63;;;2.17;;
9388;SDS011;4734;52.778;6.798;2023-12-20T17:47:46;6.03;;;2.30;;
9388;SDS011;4734;52.778;6.798;2023-12-20T17:50:33;4.23;;;1.73;;
9388;SDS011;4734;52.778;6.798;2023-12-20T17:53:19;4.00;;;2.77;;
9388;SDS011;4734;52.778;6.798;2023-12-20T17:56:04;12.93;;;3.10;;
9388;SDS011;4734;52.778;6.798;2023-12-20T17:58:50;8.03;;;2.30;;
9388;SDS011;4734;52.778;6.798;2023-12-20T18:01:37;5.07;;;2.50;;
9388;SDS011;4734;52.778;6.798;2023-12-20T18:04:22;7.07;;;3.30;;
9388;SDS011;4734;52.778;6.798;2023-12-20T18:07:11;5.50;;;2.50;;
9388;SDS011;4734;52.778;6.798;2023-12-20T18:09:57;8.20;;;3.20;;
9388;SDS011;4734;52.778;6.798;2023-12-20T18:12:42;3.53;;;2.03;;
9388;SDS011;4734;52.778;6.798;2023-12-20T18:15:28;6.43;;;2.97;;
9388;SDS011;4734;52.778;6.798;2023-12-20T18:18:13;7.27;;;3.00;;
9388;SDS011;4734;52.778;6.798;2023-12-20T18:20:59;8.82;;;2.90;;
9388;SDS011;4734;52.778;6.798;2023-12-20T18:23:47;3.80;;;2.23;;
9388;SDS011;4734;52.778;6.798;2023-12-20T18:26:32;2.27;;;2.10;;
9388;SDS011;4734;52.778;6.798;2023-12-20T18:29:19;6.33;;;2.13;;
9388;SDS011;4734;52.778;6.798;2023-12-20T18:32:04;3.17;;;2.00;;
9388;SDS011;4734;52.778;6.798;2023-12-20T18:34:50;4.93;;;2.53;;
9388;SDS011;4734;52.778;6.798;2023-12-20T18:37:36;4.93;;;2.60;;
9388;SDS011;4734;52.778;6.798;2023-12-20T18:40:24;4.97;;;2.30;;
9388;SDS011;4734;52.778;6.798;2023-12-20T18:43:11;4.80;;;2.20;;
9388;SDS011;4734;52.778;6.798;2023-12-20T18:45:56;4.65;;;2.00;;
9388;SDS011;4734;52.778;6.798;2023-12-20T18:48:42;3.17;;;1.73;;
9388;SDS011;4734;52.778;6.798;2023-12-20T18:51:28;3.90;;;2.20;;
9388;SDS011;4734;52.778;6.798;2023-12-20T18:54:14;1.53;;;1.43;;
9388;SDS011;4734;52.778;6.798;2023-12-20T18:57:03;1.67;;;1.43;;
9388;SDS011;4734;52.778;6.798;2023-12-20T18:59:51;1.20;;;1.10;;
9388;SDS011;4734;52.778;6.798;2023-12-20T19:02:36;1.80;;;1.70;;
9388;SDS011;4734;52.778;6.798;2023-12-20T19:05:22;3.00;;;1.80;;
9388;SDS011;4734;52.778;6.798;2023-12-20T19:08:10;1.83;;;1.30;;
9388;SDS011;4734;52.778;6.798;2023-12-20T19:10:56;2.37;;;1.53;;
9388;SDS011;4734;52.778;6.798;2023-12-20T19:13:42;1.27;;;1.17;;
9388;SDS011;4734;52.778;6.798;2023-12-20T19:16:28;1.33;;;1.27;;
9388;SDS011;4734;52.778;6.798;2023-12-20T19:19:14;1.92;;;1.50;;
9388;SDS011;4734;52.778;6.798;2023-12-20T19:22:00;1.80;;;1.17;;
9388;SDS011;4734;52.778;6.798;2023-12-20T19:24:46;1.70;;;1.20;;
9388;SDS011;4734;52.778;6.798;2023-12-20T19:27:31;2.38;;;1.20;;
9388;SDS011;4734;52.778;6.798;2023-12-20T19:30:18;2.73;;;1.17;;
9388;SDS011;4734;52.778;6.798;2023-12-20T19:33:04;1.40;;;1.30;;
9388;SDS011;4734;52.778;6.798;2023-12-20T19:35:49;3.23;;;1.60;;
9388;SDS011;4734;52.778;6.798;2023-12-20T19:38:35;2.57;;;1.20;;
9388;SDS011;4734;52.778;6.798;2023-12-20T19:41:21;1.27;;;1.20;;
9388;SDS011;4734;52.778;6.798;2023-12-20T19:44:07;1.20;;;1.07;;
9388;SDS011;4734;52.778;6.798;2023-12-20T19:46:54;1.30;;;1.27;;
9388;SDS011;4734;52.778;6.798;2023-12-20T19:49:39;2.08;;;1.48;;
9388;SDS011;4734;52.778;6.798;2023-12-20T19:52:25;1.33;;;1.20;;
9388;SDS011;4734;52.778;6.798;2023-12-20T19:55:12;1.40;;;1.30;;
9388;SDS011;4734;52.778;6.798;2023-12-20T19:57:57;1.05;;;1.05;;
9388;SDS011;4734;52.778;6.798;2023-12-20T20:00:43;1.60;;;0.70;;
9388;SDS011;4734;52.778;6.798;2023-12-20T20:03:30;1.35;;;1.10;;
9388;SDS011;4734;52.778;6.798;2023-12-20T20:06:15;2.22;;;1.10;;
9388;SDS011;4734;52.778;6.798;2023-12-20T20:09:01;1.13;;;0.90;;
9388;SDS011;4734;52.778;6.798;2023-12-20T20:11:47;1.45;;;0.98;;
9388;SDS011;4734;52.778;6.798;2023-12-20T20:14:33;0.80;;;0.80;;
9388;SDS011;4734;52.778;6.798;2023-12-20T20:17:18;1.02;;;0.85;;
9388;SDS011;4734;52.778;6.798;2023-12-20T20:20:06;1.63;;;1.17;;
9388;SDS011;4734;52.778;6.798;2023-12-20T20:22:52;1.15;;;1.05;;
9388;SDS011;4734;52.778;6.798;2023-12-20T20:25:38;1.65;;;0.85;;
9388;SDS011;4734;52.778;6.798;2023-12-20T20:28:23;0.80;;;0.80;;
9388;SDS011;4734;52.778;6.798;2023-12-20T20:31:11;0.65;;;0.65;;
9388;SDS011;4734;52.778;6.798;2023-12-20T20:33:57;0.85;;;0.85;;
9388;SDS011;4734;52.778;6.798;2023-12-20T20:36:44;1.10;;;0.82;;
9388;SDS011;4734;52.778;6.798;2023-12-20T20:39:30;1.13;;;0.57;;
9388;SDS011;4734;52.778;6.798;2023-12-20T20:42:15;1.25;;;0.82;;
9388;SDS011;4734;52.778;6.798;2023-12-20T20:45:01;1.80;;;1.38;;
9388;SDS011;4734;52.778;6.798;2023-12-20T20:47:46;0.73;;;0.73;;
9388;SDS011;4734;52.778;6.798;2023-12-20T20:50:32;0.73;;;0.73;;
9388;SDS011;4734;52.778;6.798;2023-12-20T20:53:19;1.30;;;1.20;;
9388;SDS011;4734;52.778;6.798;2023-12-20T20:56:08;0.40;;;0.40;;
9388;SDS011;4734;52.778;6.798;2023-12-20T20:58:54;0.88;;;0.88;;
9388;SDS011;4734;52.778;6.798;2023-12-20T21:01:39;0.50;;;0.50;;
9388;SDS011;4734;52.778;6.798;2023-12-20T21:04:26;1.38;;;0.82;;
9388;SDS011;4734;52.778;6.798;2023-12-20T21:07:12;0.60;;;0.60;;
9388;SDS011;4734;52.778;6.798;2023-12-20T21:09:58;0.55;;;0.55;;
9388;SDS011;4734;52.778;6.798;2023-12-20T21:12:44;0.40;;;0.40;;
9388;SDS011;4734;52.778;6.798;2023-12-20T21:15:30;0.70;;;0.40;;
9388;SDS011;4734;52.778;6.798;2023-12-20T21:18:15;0.75;;;0.75;;
9388;SDS011;4734;52.778;6.798;2023-12-20T21:21:01;1.15;;;0.73;;